sensor_id;sensor_type;location;lat;lon;timestamp;temperature;humidity
3408;DHT22;1717;50.240;8.406;2023-02-15T00:01:46;3.70;99.90
3408;DHT22;1717;50.240;8.406;2023-02-15T00:04:14;3.70;99.90
3408;DHT22;1717;50.240;8.406;2023-02-15T00:06:42;3.70;99.90
3408;DHT22;1717;50.240;8.406;2023-02-15T00:09:10;3.60;99.90
3408;DHT22;1717;50.240;8.406;2023-02-15T00:11:37;3.60;99.90
3408;DHT22;1717;50.240;8.406;2023-02-15T00:14:09;3.50;99.90
3408;DHT22;1717;50.240;8.406;2023-02-15T00:16:37;3.50;99.90
3408;DHT22;1717;50.240;8.406;2023-02-15T00:19:05;3.50;99.90
3408;DHT22;1717;50.240;8.406;2023-02-15T00:21:33;3.40;99.90
3408;DHT22;1717;50.240;8.406;2023-02-15T00:24:03;3.40;99.90
3408;DHT22;1717;50.240;8.406;2023-02-15T00:26:30;3.40;99.90
3408;DHT22;1717;50.240;8.406;2023-02-15T00:28:58;3.40;99.90
3408;DHT22;1717;50.240;8.406;2023-02-15T00:31:25;3.30;99.90
3408;DHT22;1717;50.240;8.406;2023-02-15T00:33:52;3.30;99.90
3408;DHT22;1717;50.240;8.406;2023-02-15T00:36:19;3.30;99.90
3408;DHT22;1717;50.240;8.406;2023-02-15T00:38:46;3.30;99.90
3408;DHT22;1717;50.240;8.406;2023-02-15T00:41:14;3.30;99.90
3408;DHT22;1717;50.240;8.406;2023-02-15T00:43:41;3.30;99.90
3408;DHT22;1717;50.240;8.406;2023-02-15T00:46:08;3.30;99.90
3408;DHT22;1717;50.240;8.406;2023-02-15T00:48:35;3.30;99.90
3408;DHT22;1717;50.240;8.406;2023-02-15T00:51:01;3.30;99.90
3408;DHT22;1717;50.240;8.406;2023-02-15T00:53:29;3.30;99.90
3408;DHT22;1717;50.240;8.406;2023-02-15T00:55:56;3.30;99.90
3408;DHT22;1717;50.240;8.406;2023-02-15T00:58:24;3.30;99.90
3408;DHT22;1717;50.240;8.406;2023-02-15T01:00:51;3.30;99.90
3408;DHT22;1717;50.240;8.406;2023-02-15T01:03:20;3.30;99.90
3408;DHT22;1717;50.240;8.406;2023-02-15T01:05:48;3.20;99.90
3408;DHT22;1717;50.240;8.406;2023-02-15T01:08:15;3.20;99.90
3408;DHT22;1717;50.240;8.406;2023-02-15T01:10:42;3.20;99.90
3408;DHT22;1717;50.240;8.406;2023-02-15T01:13:13;3.10;99.90
3408;DHT22;1717;50.240;8.406;2023-02-15T01:15:41;3.10;99.90
3408;DHT22;1717;50.240;8.406;2023-02-15T01:18:08;3.10;99.90
3408;DHT22;1717;50.240;8.406;2023-02-15T01:20:38;3.10;99.90
3408;DHT22;1717;50.240;8.406;2023-02-15T01:23:07;3.00;99.90
3408;DHT22;1717;50.240;8.406;2023-02-15T01:25:35;3.00;99.90
3408;DHT22;1717;50.240;8.406;2023-02-15T01:28:03;2.90;99.90
3408;DHT22;1717;50.240;8.406;2023-02-15T01:30:30;2.90;99.90
3408;DHT22;1717;50.240;8.406;2023-02-15T01:32:58;2.90;99.90
3408;DHT22;1717;50.240;8.406;2023-02-15T01:35:26;2.90;99.90
3408;DHT22;1717;50.240;8.406;2023-02-15T01:37:53;2.90;99.90
3408;DHT22;1717;50.240;8.406;2023-02-15T01:40:21;2.90;99.90
3408;DHT22;1717;50.240;8.406;2023-02-15T01:42:50;2.90;99.90
3408;DHT22;1717;50.240;8.406;2023-02-15T01:45:22;3.00;99.90
3408;DHT22;1717;50.240;8.406;2023-02-15T01:47:53;3.00;99.90
3408;DHT22;1717;50.240;8.406;2023-02-15T01:50:26;3.10;99.90
3408;DHT22;1717;50.240;8.406;2023-02-15T01:52:58;3.10;99.90
3408;DHT22;1717;50.240;8.406;2023-02-15T01:55:28;3.10;99.90
3408;DHT22;1717;50.240;8.406;2023-02-15T01:57:55;3.10;99.90
3408;DHT22;1717;50.240;8.406;2023-02-15T02:00:22;3.10;99.90
3408;DHT22;1717;50.240;8.406;2023-02-15T02:02:53;3.20;99.90
3408;DHT22;1717;50.240;8.406;2023-02-15T02:05:23;3.00;99.90
3408;DHT22;1717;50.240;8.406;2023-02-15T02:07:51;3.00;99.90
3408;DHT22;1717;50.240;8.406;2023-02-15T02:10:21;3.00;99.90
3408;DHT22;1717;50.240;8.406;2023-02-15T02:12:51;3.00;99.90
3408;DHT22;1717;50.240;8.406;2023-02-15T02:15:21;2.90;99.90
3408;DHT22;1717;50.240;8.406;2023-02-15T02:17:58;2.90;99.90
3408;DHT22;1717;50.240;8.406;2023-02-15T02:23:39;3.00;99.90
3408;DHT22;1717;50.240;8.406;2023-02-15T02:26:44;2.90;99.90
3408;DHT22;1717;50.240;8.406;2023-02-15T02:29:39;2.90;99.90
3408;DHT22;1717;50.240;8.406;2023-02-15T02:35:28;2.90;99.90
3408;DHT22;1717;50.240;8.406;2023-02-15T02:38:03;3.00;99.90
3408;DHT22;1717;50.240;8.406;2023-02-15T02:40:40;3.00;99.90
3408;DHT22;1717;50.240;8.406;2023-02-15T02:43:17;2.90;99.90
3408;DHT22;1717;50.240;8.406;2023-02-15T02:45:50;2.90;99.90
3408;DHT22;1717;50.240;8.406;2023-02-15T02:48:21;2.90;99.90
3408;DHT22;1717;50.240;8.406;2023-02-15T02:50:50;2.90;99.90
3408;DHT22;1717;50.240;8.406;2023-02-15T02:53:17;2.90;99.90
3408;DHT22;1717;50.240;8.406;2023-02-15T02:55:46;2.80;99.90
3408;DHT22;1717;50.240;8.406;2023-02-15T02:58:18;2.80;99.90
3408;DHT22;1717;50.240;8.406;2023-02-15T03:00:50;2.80;99.90
3408;DHT22;1717;50.240;8.406;2023-02-15T03:03:22;2.70;99.90
3408;DHT22;1717;50.240;8.406;2023-02-15T03:05:54;2.70;99.90
3408;DHT22;1717;50.240;8.406;2023-02-15T03:08:23;2.70;99.90
3408;DHT22;1717;50.240;8.406;2023-02-15T03:10:55;2.70;99.90
3408;DHT22;1717;50.240;8.406;2023-02-15T03:13:23;2.70;99.90
3408;DHT22;1717;50.240;8.406;2023-02-15T03:15:51;2.70;99.90
3408;DHT22;1717;50.240;8.406;2023-02-15T03:18:37;2.70;99.90
3408;DHT22;1717;50.240;8.406;2023-02-15T03:21:08;2.60;99.90
3408;DHT22;1717;50.240;8.406;2023-02-15T03:23:49;2.60;99.90
3408;DHT22;1717;50.240;8.406;2023-02-15T03:26:17;2.60;99.90
3408;DHT22;1717;50.240;8.406;2023-02-15T03:28:46;2.60;99.90
3408;DHT22;1717;50.240;8.406;2023-02-15T03:31:16;2.60;99.90
3408;DHT22;1717;50.240;8.406;2023-02-15T03:33:49;2.60;99.90
3408;DHT22;1717;50.240;8.406;2023-02-15T03:36:21;2.70;99.90
3408;DHT22;1717;50.240;8.406;2023-02-15T03:38:55;2.70;99.90
3408;DHT22;1717;50.240;8.406;2023-02-15T03:41:27;2.70;99.90
3408;DHT22;1717;50.240;8.406;2023-02-15T03:44:00;2.70;99.90
3408;DHT22;1717;50.240;8.406;2023-02-15T03:46:33;2.70;99.90
3408;DHT22;1717;50.240;8.406;2023-02-15T03:49:04;2.70;99.90
3408;DHT22;1717;50.240;8.406;2023-02-15T03:51:36;2.70;99.90
3408;DHT22;1717;50.240;8.406;2023-02-15T03:54:07;2.70;99.90
3408;DHT22;1717;50.240;8.406;2023-02-15T03:56:36;2.70;99.90
3408;DHT22;1717;50.240;8.406;2023-02-15T03:59:03;2.70;99.90
3408;DHT22;1717;50.240;8.406;2023-02-15T04:01:48;2.70;99.90
3408;DHT22;1717;50.240;8.406;2023-02-15T04:04:31;2.80;99.90
3408;DHT22;1717;50.240;8.406;2023-02-15T04:07:00;2.60;99.90
3408;DHT22;1717;50.240;8.406;2023-02-15T04:09:27;2.60;99.90
3408;DHT22;1717;50.240;8.406;2023-02-15T04:12:11;2.50;99.90
3408;DHT22;1717;50.240;8.406;2023-02-15T04:14:38;2.50;99.90
3408;DHT22;1717;50.240;8.406;2023-02-15T04:17:22;2.40;99.90
3408;DHT22;1717;50.240;8.406;2023-02-15T04:19:49;2.40;99.90
3408;DHT22;1717;50.240;8.406;2023-02-15T04:22:35;2.30;99.90
3408;DHT22;1717;50.240;8.406;2023-02-15T04:25:19;2.30;99.90
3408;DHT22;1717;50.240;8.406;2023-02-15T04:27:49;2.20;99.90
3408;DHT22;1717;50.240;8.406;2023-02-15T04:30:17;2.20;99.90
3408;DHT22;1717;50.240;8.406;2023-02-15T04:32:45;2.10;99.90
3408;DHT22;1717;50.240;8.406;2023-02-15T04:35:12;2.10;99.90
3408;DHT22;1717;50.240;8.406;2023-02-15T04:37:41;2.10;99.90
3408;DHT22;1717;50.240;8.406;2023-02-15T04:40:10;2.00;99.90
3408;DHT22;1717;50.240;8.406;2023-02-15T04:42:37;2.00;99.90
3408;DHT22;1717;50.240;8.406;2023-02-15T04:45:05;1.90;99.90
3408;DHT22;1717;50.240;8.406;2023-02-15T04:47:32;1.90;99.90
3408;DHT22;1717;50.240;8.406;2023-02-15T04:49:59;1.90;99.90
3408;DHT22;1717;50.240;8.406;2023-02-15T04:52:25;1.80;99.90
3408;DHT22;1717;50.240;8.406;2023-02-15T04:54:54;1.80;99.90
3408;DHT22;1717;50.240;8.406;2023-02-15T04:57:20;1.80;99.90
3408;DHT22;1717;50.240;8.406;2023-02-15T04:59:48;1.90;99.90
3408;DHT22;1717;50.240;8.406;2023-02-15T05:02:15;1.90;99.90
3408;DHT22;1717;50.240;8.406;2023-02-15T05:04:42;2.00;99.90
3408;DHT22;1717;50.240;8.406;2023-02-15T05:07:10;2.00;99.90
3408;DHT22;1717;50.240;8.406;2023-02-15T05:09:37;2.00;99.90
3408;DHT22;1717;50.240;8.406;2023-02-15T05:12:06;2.10;99.90
3408;DHT22;1717;50.240;8.406;2023-02-15T05:14:32;2.10;99.90
3408;DHT22;1717;50.240;8.406;2023-02-15T05:16:59;2.10;99.90
3408;DHT22;1717;50.240;8.406;2023-02-15T05:19:28;2.10;99.90
3408;DHT22;1717;50.240;8.406;2023-02-15T05:21:55;2.20;99.90
3408;DHT22;1717;50.240;8.406;2023-02-15T05:24:22;2.10;99.90
3408;DHT22;1717;50.240;8.406;2023-02-15T05:27:10;2.20;99.90
3408;DHT22;1717;50.240;8.406;2023-02-15T05:29:55;2.20;99.90
3408;DHT22;1717;50.240;8.406;2023-02-15T05:32:21;2.20;99.90
3408;DHT22;1717;50.240;8.406;2023-02-15T05:34:48;2.20;99.90
3408;DHT22;1717;50.240;8.406;2023-02-15T05:37:15;2.30;99.90
3408;DHT22;1717;50.240;8.406;2023-02-15T05:39:42;2.30;99.90
3408;DHT22;1717;50.240;8.406;2023-02-15T05:42:10;2.30;99.90
3408;DHT22;1717;50.240;8.406;2023-02-15T05:44:37;2.40;99.90
3408;DHT22;1717;50.240;8.406;2023-02-15T05:47:04;2.40;99.90
3408;DHT22;1717;50.240;8.406;2023-02-15T05:49:33;2.40;99.90
3408;DHT22;1717;50.240;8.406;2023-02-15T05:52:00;2.40;99.90
3408;DHT22;1717;50.240;8.406;2023-02-15T05:54:28;2.50;99.90
3408;DHT22;1717;50.240;8.406;2023-02-15T05:56:55;2.50;99.90
3408;DHT22;1717;50.240;8.406;2023-02-15T05:59:23;2.50;99.90
3408;DHT22;1717;50.240;8.406;2023-02-15T06:01:50;2.50;99.90
3408;DHT22;1717;50.240;8.406;2023-02-15T06:04:17;2.50;99.90
3408;DHT22;1717;50.240;8.406;2023-02-15T06:06:44;2.60;99.90
3408;DHT22;1717;50.240;8.406;2023-02-15T06:09:11;2.50;99.90
3408;DHT22;1717;50.240;8.406;2023-02-15T06:11:38;2.60;99.90
3408;DHT22;1717;50.240;8.406;2023-02-15T06:14:05;2.50;99.90
3408;DHT22;1717;50.240;8.406;2023-02-15T06:16:33;2.50;99.90
3408;DHT22;1717;50.240;8.406;2023-02-15T06:19:00;2.60;99.90
3408;DHT22;1717;50.240;8.406;2023-02-15T06:21:28;2.60;99.90
3408;DHT22;1717;50.240;8.406;2023-02-15T06:23:54;2.70;99.90
3408;DHT22;1717;50.240;8.406;2023-02-15T06:26:21;2.70;99.90
3408;DHT22;1717;50.240;8.406;2023-02-15T06:28:48;2.70;99.90
3408;DHT22;1717;50.240;8.406;2023-02-15T06:31:15;2.70;99.90
3408;DHT22;1717;50.240;8.406;2023-02-15T06:33:43;2.70;99.90
3408;DHT22;1717;50.240;8.406;2023-02-15T06:36:10;2.70;99.90
3408;DHT22;1717;50.240;8.406;2023-02-15T06:38:38;2.70;99.90
3408;DHT22;1717;50.240;8.406;2023-02-15T06:41:05;2.60;99.90
3408;DHT22;1717;50.240;8.406;2023-02-15T06:43:31;2.60;99.90
3408;DHT22;1717;50.240;8.406;2023-02-15T06:45:59;2.60;99.90
3408;DHT22;1717;50.240;8.406;2023-02-15T06:48:26;2.60;99.90
3408;DHT22;1717;50.240;8.406;2023-02-15T06:50:54;2.60;99.90
3408;DHT22;1717;50.240;8.406;2023-02-15T06:53:21;2.70;99.90
3408;DHT22;1717;50.240;8.406;2023-02-15T06:55:48;2.70;99.90
3408;DHT22;1717;50.240;8.406;2023-02-15T06:58:15;2.70;99.90
3408;DHT22;1717;50.240;8.406;2023-02-15T07:00:41;2.70;99.90
3408;DHT22;1717;50.240;8.406;2023-02-15T07:03:08;2.90;99.90
3408;DHT22;1717;50.240;8.406;2023-02-15T07:05:35;2.80;99.90
3408;DHT22;1717;50.240;8.406;2023-02-15T07:08:03;3.00;99.90
3408;DHT22;1717;50.240;8.406;2023-02-15T07:10:30;2.90;99.90
3408;DHT22;1717;50.240;8.406;2023-02-15T07:12:57;2.90;99.90
3408;DHT22;1717;50.240;8.406;2023-02-15T07:15:23;2.80;99.90
3408;DHT22;1717;50.240;8.406;2023-02-15T07:17:50;2.90;99.90
3408;DHT22;1717;50.240;8.406;2023-02-15T07:20:19;2.90;99.90
3408;DHT22;1717;50.240;8.406;2023-02-15T07:22:46;2.90;99.90
3408;DHT22;1717;50.240;8.406;2023-02-15T07:25:15;2.90;99.90
3408;DHT22;1717;50.240;8.406;2023-02-15T07:27:42;3.00;99.90
3408;DHT22;1717;50.240;8.406;2023-02-15T07:30:12;3.00;99.90
3408;DHT22;1717;50.240;8.406;2023-02-15T07:32:39;2.90;99.90
3408;DHT22;1717;50.240;8.406;2023-02-15T07:35:26;3.00;99.90
3408;DHT22;1717;50.240;8.406;2023-02-15T07:37:54;3.00;99.90
3408;DHT22;1717;50.240;8.406;2023-02-15T07:40:22;3.00;99.90
3408;DHT22;1717;50.240;8.406;2023-02-15T07:42:50;3.10;99.90
3408;DHT22;1717;50.240;8.406;2023-02-15T07:45:20;3.10;99.90
3408;DHT22;1717;50.240;8.406;2023-02-15T07:47:47;3.10;99.90
3408;DHT22;1717;50.240;8.406;2023-02-15T07:50:14;3.20;99.90
3408;DHT22;1717;50.240;8.406;2023-02-15T07:52:41;3.20;99.90
3408;DHT22;1717;50.240;8.406;2023-02-15T07:55:08;3.20;99.90
3408;DHT22;1717;50.240;8.406;2023-02-15T07:57:42;3.20;99.90
3408;DHT22;1717;50.240;8.406;2023-02-15T08:00:10;3.20;99.90
3408;DHT22;1717;50.240;8.406;2023-02-15T08:02:38;3.20;99.90
3408;DHT22;1717;50.240;8.406;2023-02-15T08:05:06;3.20;99.90
3408;DHT22;1717;50.240;8.406;2023-02-15T08:07:32;3.20;99.90
3408;DHT22;1717;50.240;8.406;2023-02-15T08:09:59;3.20;99.90
3408;DHT22;1717;50.240;8.406;2023-02-15T08:12:26;3.20;99.90
3408;DHT22;1717;50.240;8.406;2023-02-15T08:14:54;3.30;99.90
3408;DHT22;1717;50.240;8.406;2023-02-15T08:17:21;3.50;99.90
3408;DHT22;1717;50.240;8.406;2023-02-15T08:19:49;3.30;99.90
3408;DHT22;1717;50.240;8.406;2023-02-15T08:22:15;3.30;99.90
3408;DHT22;1717;50.240;8.406;2023-02-15T08:24:42;3.40;99.90
3408;DHT22;1717;50.240;8.406;2023-02-15T08:27:10;3.40;99.90
3408;DHT22;1717;50.240;8.406;2023-02-15T08:29:37;3.40;99.90
3408;DHT22;1717;50.240;8.406;2023-02-15T08:32:08;3.40;99.90
3408;DHT22;1717;50.240;8.406;2023-02-15T08:34:38;3.50;99.90
3408;DHT22;1717;50.240;8.406;2023-02-15T08:37:05;3.60;99.90
3408;DHT22;1717;50.240;8.406;2023-02-15T08:39:32;3.70;99.90
3408;DHT22;1717;50.240;8.406;2023-02-15T08:41:59;3.70;99.90
3408;DHT22;1717;50.240;8.406;2023-02-15T08:44:26;3.80;99.90
3408;DHT22;1717;50.240;8.406;2023-02-15T08:46:53;3.80;99.90
3408;DHT22;1717;50.240;8.406;2023-02-15T08:49:24;3.80;99.90
3408;DHT22;1717;50.240;8.406;2023-02-15T08:51:51;4.00;99.90
3408;DHT22;1717;50.240;8.406;2023-02-15T08:54:20;4.10;99.90
3408;DHT22;1717;50.240;8.406;2023-02-15T08:56:47;3.90;99.90
3408;DHT22;1717;50.240;8.406;2023-02-15T08:59:15;4.00;99.90
3408;DHT22;1717;50.240;8.406;2023-02-15T09:01:43;4.00;99.90
3408;DHT22;1717;50.240;8.406;2023-02-15T09:04:11;4.00;99.90
3408;DHT22;1717;50.240;8.406;2023-02-15T09:06:40;4.10;99.90
3408;DHT22;1717;50.240;8.406;2023-02-15T09:09:09;4.20;99.90
3408;DHT22;1717;50.240;8.406;2023-02-15T09:11:38;4.30;99.90
3408;DHT22;1717;50.240;8.406;2023-02-15T09:14:07;4.30;99.90
3408;DHT22;1717;50.240;8.406;2023-02-15T09:16:36;4.40;99.90
3408;DHT22;1717;50.240;8.406;2023-02-15T09:19:03;4.40;99.90
3408;DHT22;1717;50.240;8.406;2023-02-15T09:21:32;4.40;99.90
3408;DHT22;1717;50.240;8.406;2023-02-15T09:24:02;4.50;99.90
3408;DHT22;1717;50.240;8.406;2023-02-15T09:26:31;4.50;99.90
3408;DHT22;1717;50.240;8.406;2023-02-15T09:29:00;4.50;99.90
3408;DHT22;1717;50.240;8.406;2023-02-15T09:31:30;4.60;99.90
3408;DHT22;1717;50.240;8.406;2023-02-15T09:33:58;4.60;99.90
3408;DHT22;1717;50.240;8.406;2023-02-15T09:36:28;4.60;99.90
3408;DHT22;1717;50.240;8.406;2023-02-15T09:38:57;4.70;99.90
3408;DHT22;1717;50.240;8.406;2023-02-15T09:41:44;4.70;99.90
3408;DHT22;1717;50.240;8.406;2023-02-15T09:44:22;4.70;99.90
3408;DHT22;1717;50.240;8.406;2023-02-15T09:47:06;4.70;99.90
3408;DHT22;1717;50.240;8.406;2023-02-15T09:49:44;4.80;99.90
3408;DHT22;1717;50.240;8.406;2023-02-15T09:52:34;4.80;99.90
3408;DHT22;1717;50.240;8.406;2023-02-15T09:55:22;4.80;99.90
3408;DHT22;1717;50.240;8.406;2023-02-15T09:57:55;4.90;99.90
3408;DHT22;1717;50.240;8.406;2023-02-15T10:00:30;4.90;99.90
3408;DHT22;1717;50.240;8.406;2023-02-15T10:03:21;5.00;99.90
3408;DHT22;1717;50.240;8.406;2023-02-15T10:06:10;5.00;99.90
3408;DHT22;1717;50.240;8.406;2023-02-15T10:08:57;5.10;99.90
3408;DHT22;1717;50.240;8.406;2023-02-15T10:11:35;5.10;99.90
3408;DHT22;1717;50.240;8.406;2023-02-15T10:14:31;5.10;99.90
3408;DHT22;1717;50.240;8.406;2023-02-15T10:17:10;5.20;99.90
3408;DHT22;1717;50.240;8.406;2023-02-15T10:19:44;5.20;99.90
3408;DHT22;1717;50.240;8.406;2023-02-15T10:22:26;5.20;99.90
3408;DHT22;1717;50.240;8.406;2023-02-15T10:25:07;5.20;99.90
3408;DHT22;1717;50.240;8.406;2023-02-15T10:27:44;5.20;99.90
3408;DHT22;1717;50.240;8.406;2023-02-15T10:30:15;5.30;99.90
3408;DHT22;1717;50.240;8.406;2023-02-15T10:32:51;5.30;99.90
3408;DHT22;1717;50.240;8.406;2023-02-15T10:35:24;5.30;99.90
3408;DHT22;1717;50.240;8.406;2023-02-15T10:38:13;5.50;99.90
3408;DHT22;1717;50.240;8.406;2023-02-15T10:40:53;5.40;99.90
3408;DHT22;1717;50.240;8.406;2023-02-15T10:43:41;5.30;99.90
3408;DHT22;1717;50.240;8.406;2023-02-15T10:46:24;5.30;99.90
3408;DHT22;1717;50.240;8.406;2023-02-15T10:49:11;5.30;99.90
3408;DHT22;1717;50.240;8.406;2023-02-15T10:51:52;5.30;99.90
3408;DHT22;1717;50.240;8.406;2023-02-15T10:54:32;5.30;99.90
3408;DHT22;1717;50.240;8.406;2023-02-15T10:57:07;5.30;99.90
3408;DHT22;1717;50.240;8.406;2023-02-15T11:00:05;5.30;99.90
3408;DHT22;1717;50.240;8.406;2023-02-15T11:02:46;5.30;99.90
3408;DHT22;1717;50.240;8.406;2023-02-15T11:05:24;5.30;99.90
3408;DHT22;1717;50.240;8.406;2023-02-15T11:07:55;5.20;99.90
3408;DHT22;1717;50.240;8.406;2023-02-15T11:10:29;5.20;99.90
3408;DHT22;1717;50.240;8.406;2023-02-15T11:12:58;5.20;99.90
3408;DHT22;1717;50.240;8.406;2023-02-15T11:15:31;5.10;99.90
3408;DHT22;1717;50.240;8.406;2023-02-15T11:18:05;5.10;99.90
3408;DHT22;1717;50.240;8.406;2023-02-15T11:20:35;5.00;99.90
3408;DHT22;1717;50.240;8.406;2023-02-15T11:23:12;4.90;99.90
3408;DHT22;1717;50.240;8.406;2023-02-15T11:25:44;4.90;99.90
3408;DHT22;1717;50.240;8.406;2023-02-15T11:28:18;4.90;99.90
3408;DHT22;1717;50.240;8.406;2023-02-15T11:30:49;4.90;99.90
3408;DHT22;1717;50.240;8.406;2023-02-15T11:33:23;5.00;99.90
3408;DHT22;1717;50.240;8.406;2023-02-15T11:35:55;4.80;99.90
3408;DHT22;1717;50.240;8.406;2023-02-15T11:38:28;4.80;99.90
3408;DHT22;1717;50.240;8.406;2023-02-15T11:40:58;4.80;99.90
3408;DHT22;1717;50.240;8.406;2023-02-15T11:43:30;4.80;99.90
3408;DHT22;1717;50.240;8.406;2023-02-15T11:45:59;4.70;99.90
3408;DHT22;1717;50.240;8.406;2023-02-15T11:48:30;4.70;99.90
3408;DHT22;1717;50.240;8.406;2023-02-15T11:50:58;4.70;99.90
3408;DHT22;1717;50.240;8.406;2023-02-15T11:53:33;4.70;99.90
3408;DHT22;1717;50.240;8.406;2023-02-15T11:56:01;4.70;99.90
3408;DHT22;1717;50.240;8.406;2023-02-15T11:58:35;4.70;99.90
3408;DHT22;1717;50.240;8.406;2023-02-15T12:01:10;4.70;99.90
3408;DHT22;1717;50.240;8.406;2023-02-15T12:03:44;4.70;99.90
3408;DHT22;1717;50.240;8.406;2023-02-15T12:06:24;4.80;99.90
3408;DHT22;1717;50.240;8.406;2023-02-15T12:08:57;4.80;99.90
3408;DHT22;1717;50.240;8.406;2023-02-15T12:11:33;4.80;99.90
3408;DHT22;1717;50.240;8.406;2023-02-15T12:14:03;4.80;99.90
3408;DHT22;1717;50.240;8.406;2023-02-15T12:16:39;4.80;99.90
3408;DHT22;1717;50.240;8.406;2023-02-15T12:21:56;4.80;99.90
3408;DHT22;1717;50.240;8.406;2023-02-15T12:24:27;4.80;99.90
3408;DHT22;1717;50.240;8.406;2023-02-15T12:27:01;4.80;99.90
3408;DHT22;1717;50.240;8.406;2023-02-15T12:29:32;4.80;99.90
3408;DHT22;1717;50.240;8.406;2023-02-15T12:32:01;4.90;99.90
3408;DHT22;1717;50.240;8.406;2023-02-15T12:34:32;4.90;99.90
3408;DHT22;1717;50.240;8.406;2023-02-15T12:37:10;4.90;99.90
3408;DHT22;1717;50.240;8.406;2023-02-15T12:39:51;4.90;99.90
3408;DHT22;1717;50.240;8.406;2023-02-15T12:42:18;4.90;99.90
3408;DHT22;1717;50.240;8.406;2023-02-15T12:44:58;5.00;99.90
3408;DHT22;1717;50.240;8.406;2023-02-15T12:47:26;5.00;99.90
3408;DHT22;1717;50.240;8.406;2023-02-15T12:50:11;5.00;99.90
3408;DHT22;1717;50.240;8.406;2023-02-15T12:52:44;5.00;99.90
3408;DHT22;1717;50.240;8.406;2023-02-15T12:55:19;5.00;99.90
3408;DHT22;1717;50.240;8.406;2023-02-15T12:57:47;5.10;99.90
3408;DHT22;1717;50.240;8.406;2023-02-15T13:00:27;5.20;99.90
3408;DHT22;1717;50.240;8.406;2023-02-15T13:02:58;5.10;99.90
3408;DHT22;1717;50.240;8.406;2023-02-15T13:05:32;5.20;99.90
3408;DHT22;1717;50.240;8.406;2023-02-15T13:08:02;5.10;99.90
3408;DHT22;1717;50.240;8.406;2023-02-15T13:10:33;5.20;99.90
3408;DHT22;1717;50.240;8.406;2023-02-15T13:13:01;5.20;99.90
3408;DHT22;1717;50.240;8.406;2023-02-15T13:15:37;5.20;99.90
3408;DHT22;1717;50.240;8.406;2023-02-15T13:18:11;5.20;99.90
3408;DHT22;1717;50.240;8.406;2023-02-15T13:20:42;5.30;99.90
3408;DHT22;1717;50.240;8.406;2023-02-15T13:23:21;5.30;99.90
3408;DHT22;1717;50.240;8.406;2023-02-15T13:25:50;5.40;99.90
3408;DHT22;1717;50.240;8.406;2023-02-15T13:28:20;5.40;99.90
3408;DHT22;1717;50.240;8.406;2023-02-15T13:30:50;5.50;99.90
3408;DHT22;1717;50.240;8.406;2023-02-15T13:33:21;5.50;99.90
3408;DHT22;1717;50.240;8.406;2023-02-15T13:35:58;5.60;99.90
3408;DHT22;1717;50.240;8.406;2023-02-15T13:38:44;5.70;99.90
3408;DHT22;1717;50.240;8.406;2023-02-15T13:41:16;5.70;99.90
3408;DHT22;1717;50.240;8.406;2023-02-15T13:43:52;5.80;99.90
3408;DHT22;1717;50.240;8.406;2023-02-15T13:46:34;5.80;99.90
3408;DHT22;1717;50.240;8.406;2023-02-15T13:49:14;6.10;99.90
3408;DHT22;1717;50.240;8.406;2023-02-15T13:51:53;6.00;99.90
3408;DHT22;1717;50.240;8.406;2023-02-15T13:57:45;6.10;99.90
3408;DHT22;1717;50.240;8.406;2023-02-15T14:00:20;6.20;99.90
3408;DHT22;1717;50.240;8.406;2023-02-15T14:06:02;6.20;99.90
3408;DHT22;1717;50.240;8.406;2023-02-15T14:08:54;6.30;99.90
3408;DHT22;1717;50.240;8.406;2023-02-15T14:11:32;6.40;99.90
3408;DHT22;1717;50.240;8.406;2023-02-15T14:14:15;6.40;99.90
3408;DHT22;1717;50.240;8.406;2023-02-15T14:16:54;6.40;99.90
3408;DHT22;1717;50.240;8.406;2023-02-15T14:19:31;6.50;99.90
3408;DHT22;1717;50.240;8.406;2023-02-15T14:22:09;6.50;99.90
3408;DHT22;1717;50.240;8.406;2023-02-15T14:24:44;6.60;99.90
3408;DHT22;1717;50.240;8.406;2023-02-15T14:27:22;6.60;99.90
3408;DHT22;1717;50.240;8.406;2023-02-15T14:29:53;6.60;99.90
3408;DHT22;1717;50.240;8.406;2023-02-15T14:32:27;6.60;99.90
3408;DHT22;1717;50.240;8.406;2023-02-15T14:34:58;6.70;99.90
3408;DHT22;1717;50.240;8.406;2023-02-15T14:37:36;6.70;99.90
3408;DHT22;1717;50.240;8.406;2023-02-15T14:40:12;6.80;99.90
3408;DHT22;1717;50.240;8.406;2023-02-15T14:43:06;6.80;99.90
3408;DHT22;1717;50.240;8.406;2023-02-15T14:45:41;6.90;99.90
3408;DHT22;1717;50.240;8.406;2023-02-15T14:48:15;7.00;99.90
3408;DHT22;1717;50.240;8.406;2023-02-15T14:50:44;7.00;99.90
3408;DHT22;1717;50.240;8.406;2023-02-15T14:53:17;7.10;99.90
3408;DHT22;1717;50.240;8.406;2023-02-15T14:56:05;6.90;99.90
3408;DHT22;1717;50.240;8.406;2023-02-15T14:58:33;6.80;99.90
3408;DHT22;1717;50.240;8.406;2023-02-15T15:01:04;6.70;99.90
3408;DHT22;1717;50.240;8.406;2023-02-15T15:03:33;6.50;99.90
3408;DHT22;1717;50.240;8.406;2023-02-15T15:06:02;6.30;99.90
3408;DHT22;1717;50.240;8.406;2023-02-15T15:08:34;6.20;99.90
3408;DHT22;1717;50.240;8.406;2023-02-15T15:14:03;5.70;99.90
3408;DHT22;1717;50.240;8.406;2023-02-15T15:16:47;5.50;99.90
3408;DHT22;1717;50.240;8.406;2023-02-15T15:22:32;5.10;99.90
3408;DHT22;1717;50.240;8.406;2023-02-15T15:25:00;4.90;99.90
3408;DHT22;1717;50.240;8.406;2023-02-15T15:27:45;4.80;99.90
3408;DHT22;1717;50.240;8.406;2023-02-15T15:37:00;4.80;99.90
3408;DHT22;1717;50.240;8.406;2023-02-15T15:42:57;5.10;99.90
3408;DHT22;1717;50.240;8.406;2023-02-15T15:45:38;5.30;99.90
3408;DHT22;1717;50.240;8.406;2023-02-15T15:48:28;5.50;99.90
3408;DHT22;1717;50.240;8.406;2023-02-15T15:50:58;5.60;99.90
3408;DHT22;1717;50.240;8.406;2023-02-15T15:53:29;5.70;99.90
3408;DHT22;1717;50.240;8.406;2023-02-15T15:56:00;5.80;99.90
3408;DHT22;1717;50.240;8.406;2023-02-15T15:58:30;5.90;99.90
3408;DHT22;1717;50.240;8.406;2023-02-15T16:01:01;6.00;99.90
3408;DHT22;1717;50.240;8.406;2023-02-15T16:03:30;6.10;99.90
3408;DHT22;1717;50.240;8.406;2023-02-15T16:05:57;6.10;99.90
3408;DHT22;1717;50.240;8.406;2023-02-15T16:08:29;6.40;99.90
3408;DHT22;1717;50.240;8.406;2023-02-15T16:10:57;6.30;99.90
3408;DHT22;1717;50.240;8.406;2023-02-15T16:13:25;6.30;99.90
3408;DHT22;1717;50.240;8.406;2023-02-15T16:15:53;6.30;99.90
3408;DHT22;1717;50.240;8.406;2023-02-15T16:18:23;6.30;99.90
3408;DHT22;1717;50.240;8.406;2023-02-15T16:20:53;6.30;99.90
3408;DHT22;1717;50.240;8.406;2023-02-15T16:23:39;6.20;99.90
3408;DHT22;1717;50.240;8.406;2023-02-15T16:26:15;6.30;99.90
3408;DHT22;1717;50.240;8.406;2023-02-15T16:28:48;6.30;99.90
3408;DHT22;1717;50.240;8.406;2023-02-15T16:31:17;6.30;99.90
3408;DHT22;1717;50.240;8.406;2023-02-15T16:33:45;6.30;99.90
3408;DHT22;1717;50.240;8.406;2023-02-15T16:36:19;6.40;99.90
3408;DHT22;1717;50.240;8.406;2023-02-15T16:39:07;6.40;99.90
3408;DHT22;1717;50.240;8.406;2023-02-15T16:41:34;6.50;99.90
3408;DHT22;1717;50.240;8.406;2023-02-15T16:44:06;6.30;99.90
3408;DHT22;1717;50.240;8.406;2023-02-15T16:46:38;6.30;99.90
3408;DHT22;1717;50.240;8.406;2023-02-15T16:49:15;6.30;99.90
3408;DHT22;1717;50.240;8.406;2023-02-15T16:51:43;6.30;99.90
3408;DHT22;1717;50.240;8.406;2023-02-15T16:54:18;6.20;99.90
3408;DHT22;1717;50.240;8.406;2023-02-15T16:56:46;6.20;99.90
3408;DHT22;1717;50.240;8.406;2023-02-15T16:59:31;6.10;99.90
3408;DHT22;1717;50.240;8.406;2023-02-15T17:01:59;6.10;99.90
3408;DHT22;1717;50.240;8.406;2023-02-15T17:04:29;6.00;99.90
3408;DHT22;1717;50.240;8.406;2023-02-15T17:07:04;6.00;99.90
3408;DHT22;1717;50.240;8.406;2023-02-15T17:09:33;5.90;99.90
3408;DHT22;1717;50.240;8.406;2023-02-15T17:12:00;5.90;99.90
3408;DHT22;1717;50.240;8.406;2023-02-15T17:14:29;5.80;99.90
3408;DHT22;1717;50.240;8.406;2023-02-15T17:17:02;5.80;99.90
3408;DHT22;1717;50.240;8.406;2023-02-15T17:19:40;5.70;99.90